Terminal Aerodrome Forecast
Issued by NWS Grand Forks, ND

Home | Current Version | Previous Version | Text Only | Print | Product List | Glossary On
Versions: 1 2 3 4 5 6 7 8 9 10 11 12 13 14 15 16 17 18 19 20 21
861
FTUS43 KFGF 091732
TAFFAR
TAF
KFAR 091732Z 0918/1018 30011KT P6SM BKN025
     FM092100 30008KT P6SM SCT035
     FM101000 00000KT P6SM BKN025
     FM101300 00000KT P6SM BKN040=

USA.gov is the U.S. government's official web portal to all federal, state and local government web resources and services.